sensor_id;sensor_type;location;lat;lon;timestamp;pressure;altitude;pressure_sealevel;temperature;humidity
5126;BME280;63008;53.112;8.896;2023-04-28T00:01:10;101770.59;;;6.21;85.69
5126;BME280;63008;53.112;8.896;2023-04-28T00:03:12;101778.78;;;6.11;85.48
5126;BME280;63008;53.112;8.896;2023-04-28T00:05:12;101769.81;;;6.06;85.58
5126;BME280;63008;53.112;8.896;2023-04-28T00:07:13;101772.00;;;6.04;85.87
5126;BME280;63008;53.112;8.896;2023-04-28T00:09:14;101764.69;;;5.99;85.73
5126;BME280;63008;53.112;8.896;2023-04-28T00:11:15;101770.94;;;6.00;86.54
5126;BME280;63008;53.112;8.896;2023-04-28T00:13:16;101768.50;;;5.98;86.05
5126;BME280;63008;53.112;8.896;2023-04-28T00:15:17;101768.22;;;6.00;85.86
5126;BME280;63008;53.112;8.896;2023-04-28T00:17:18;101769.59;;;6.02;86.27
5126;BME280;63008;53.112;8.896;2023-04-28T00:19:19;101757.59;;;6.03;85.51
5126;BME280;63008;53.112;8.896;2023-04-28T00:21:21;101749.41;;;6.03;85.45
5126;BME280;63008;53.112;8.896;2023-04-28T00:23:22;101752.69;;;6.05;85.41
5126;BME280;63008;53.112;8.896;2023-04-28T00:25:23;101749.41;;;5.98;85.31
5126;BME280;63008;53.112;8.896;2023-04-28T00:27:24;101746.19;;;5.91;85.71
5126;BME280;63008;53.112;8.896;2023-04-28T00:29:25;101742.34;;;6.02;86.05
5126;BME280;63008;53.112;8.896;2023-04-28T00:31:26;101750.25;;;5.99;85.84
5126;BME280;63008;53.112;8.896;2023-04-28T00:33:26;101750.50;;;6.02;85.56
5126;BME280;63008;53.112;8.896;2023-04-28T00:35:27;101740.72;;;6.01;85.41
5126;BME280;63008;53.112;8.896;2023-04-28T00:37:28;101739.09;;;6.00;85.36
5126;BME280;63008;53.112;8.896;2023-04-28T00:39:29;101735.03;;;5.88;85.05
5126;BME280;63008;53.112;8.896;2023-04-28T00:41:30;101729.91;;;5.81;85.58
5126;BME280;63008;53.112;8.896;2023-04-28T00:43:42;101732.91;;;5.80;85.33
5126;BME280;63008;53.112;8.896;2023-04-28T00:45:44;101729.59;;;5.78;85.11
5126;BME280;63008;53.112;8.896;2023-04-28T00:47:45;101727.19;;;5.81;85.21
5126;BME280;63008;53.112;8.896;2023-04-28T00:49:46;101722.81;;;5.80;85.46
5126;BME280;63008;53.112;8.896;2023-04-28T00:51:49;101719.28;;;5.75;85.62
5126;BME280;63008;53.112;8.896;2023-04-28T00:53:50;101708.13;;;5.71;85.01
5126;BME280;63008;53.112;8.896;2023-04-28T00:55:51;101705.13;;;5.68;85.65
5126;BME280;63008;53.112;8.896;2023-04-28T00:57:55;101700.50;;;5.68;85.68
5126;BME280;63008;53.112;8.896;2023-04-28T00:59:56;101704.28;;;5.72;85.79
5126;BME280;63008;53.112;8.896;2023-04-28T01:01:58;101704.81;;;5.74;85.60
5126;BME280;63008;53.112;8.896;2023-04-28T01:03:59;101709.22;;;5.65;86.01
5126;BME280;63008;53.112;8.896;2023-04-28T01:06:01;101707.03;;;5.72;85.54
5126;BME280;63008;53.112;8.896;2023-04-28T01:08:02;101697.25;;;5.66;85.49
5126;BME280;63008;53.112;8.896;2023-04-28T01:10:03;101695.66;;;5.50;86.18
5126;BME280;63008;53.112;8.896;2023-04-28T01:12:04;101692.38;;;5.63;86.66
5126;BME280;63008;53.112;8.896;2023-04-28T01:14:05;101685.59;;;5.56;86.05
5126;BME280;63008;53.112;8.896;2023-04-28T01:16:06;101694.22;;;5.68;85.69
5126;BME280;63008;53.112;8.896;2023-04-28T01:18:07;101690.44;;;5.64;85.70
5126;BME280;63008;53.112;8.896;2023-04-28T01:20:09;101687.44;;;5.65;85.65
5126;BME280;63008;53.112;8.896;2023-04-28T01:22:10;101685.78;;;5.69;85.80
5126;BME280;63008;53.112;8.896;2023-04-28T01:24:15;101685.50;;;5.71;86.01
5126;BME280;63008;53.112;8.896;2023-04-28T01:26:16;101689.31;;;5.70;85.61
5126;BME280;63008;53.112;8.896;2023-04-28T01:28:17;101689.63;;;5.68;85.72
5126;BME280;63008;53.112;8.896;2023-04-28T01:30:18;101688.53;;;5.69;85.40
5126;BME280;63008;53.112;8.896;2023-04-28T01:32:19;101688.53;;;5.69;85.23
5126;BME280;63008;53.112;8.896;2023-04-28T01:34:20;101685.78;;;5.69;84.96
5126;BME280;63008;53.112;8.896;2023-04-28T01:36:20;101672.19;;;5.69;85.01
5126;BME280;63008;53.112;8.896;2023-04-28T01:38:23;101675.19;;;5.68;84.88
5126;BME280;63008;53.112;8.896;2023-04-28T01:40:24;101663.75;;;5.66;85.02
5126;BME280;63008;53.112;8.896;2023-04-28T01:42:25;101670.03;;;5.66;85.18
5126;BME280;63008;53.112;8.896;2023-04-28T01:44:26;101672.47;;;5.63;85.03
5126;BME280;63008;53.112;8.896;2023-04-28T01:46:27;101664.28;;;5.73;84.88
5126;BME280;63008;53.112;8.896;2023-04-28T01:48:28;101659.66;;;5.68;84.67
5126;BME280;63008;53.112;8.896;2023-04-28T01:50:29;101657.28;;;5.57;84.83
5126;BME280;63008;53.112;8.896;2023-04-28T01:52:30;101663.25;;;5.54;85.11
5126;BME280;63008;53.112;8.896;2023-04-28T01:54:31;101658.63;;;5.54;84.88
5126;BME280;63008;53.112;8.896;2023-04-28T01:56:32;101652.13;;;5.50;84.85
5126;BME280;63008;53.112;8.896;2023-04-28T01:58:33;101650.78;;;5.43;85.37
5126;BME280;63008;53.112;8.896;2023-04-28T02:00:34;101642.31;;;5.44;85.56
5126;BME280;63008;53.112;8.896;2023-04-28T02:02:35;101641.22;;;5.45;85.17
5126;BME280;63008;53.112;8.896;2023-04-28T02:04:37;101642.28;;;5.54;85.24
5126;BME280;63008;53.112;8.896;2023-04-28T02:06:38;101639.00;;;5.57;84.53
5126;BME280;63008;53.112;8.896;2023-04-28T02:08:39;101632.22;;;5.60;84.40
5126;BME280;63008;53.112;8.896;2023-04-28T02:10:40;101627.03;;;5.58;84.57
5126;BME280;63008;53.112;8.896;2023-04-28T02:12:41;101625.13;;;5.59;84.54
5126;BME280;63008;53.112;8.896;2023-04-28T02:14:42;101620.25;;;5.51;84.73
5126;BME280;63008;53.112;8.896;2023-04-28T02:16:43;101618.34;;;5.51;84.62
5126;BME280;63008;53.112;8.896;2023-04-28T02:18:44;101618.13;;;5.43;84.83
5126;BME280;63008;53.112;8.896;2023-04-28T02:20:45;101618.38;;;5.41;85.44
5126;BME280;63008;53.112;8.896;2023-04-28T02:22:46;101615.09;;;5.44;84.87
5126;BME280;63008;53.112;8.896;2023-04-28T02:24:47;101613.22;;;5.45;84.54
5126;BME280;63008;53.112;8.896;2023-04-28T02:26:48;101613.50;;;5.38;84.86
5126;BME280;63008;53.112;8.896;2023-04-28T02:28:49;101613.81;;;5.37;85.07
5126;BME280;63008;53.112;8.896;2023-04-28T02:30:50;101614.06;;;5.35;85.40
5126;BME280;63008;53.112;8.896;2023-04-28T02:32:51;101600.47;;;5.35;85.11
5126;BME280;63008;53.112;8.896;2023-04-28T02:34:53;101596.16;;;5.30;85.37
5126;BME280;63008;53.112;8.896;2023-04-28T02:36:54;101599.63;;;5.40;85.88
5126;BME280;63008;53.112;8.896;2023-04-28T02:38:56;101604.50;;;5.43;85.33
5126;BME280;63008;53.112;8.896;2023-04-28T02:41:02;101600.19;;;5.32;85.28
5126;BME280;63008;53.112;8.896;2023-04-28T02:43:04;101602.69;;;5.29;85.52
5126;BME280;63008;53.112;8.896;2023-04-28T02:45:05;101594.50;;;5.24;86.37
5126;BME280;63008;53.112;8.896;2023-04-28T02:47:07;101594.50;;;5.24;85.73
5126;BME280;63008;53.112;8.896;2023-04-28T02:49:07;101583.09;;;5.22;85.32
5126;BME280;63008;53.112;8.896;2023-04-28T02:51:08;101578.78;;;5.16;85.38
5126;BME280;63008;53.112;8.896;2023-04-28T02:53:09;101577.94;;;5.20;85.50
5126;BME280;63008;53.112;8.896;2023-04-28T02:55:10;101570.84;;;5.24;84.90
5126;BME280;63008;53.112;8.896;2023-04-28T02:57:11;101564.03;;;5.27;84.50
5126;BME280;63008;53.112;8.896;2023-04-28T02:59:12;101562.94;;;5.28;84.06
5126;BME280;63008;53.112;8.896;2023-04-28T03:01:13;101561.91;;;5.19;84.21
5126;BME280;63008;53.112;8.896;2023-04-28T03:03:14;101553.44;;;5.25;84.17
5126;BME280;63008;53.112;8.896;2023-04-28T03:05:15;101548.81;;;5.21;83.94
5126;BME280;63008;53.112;8.896;2023-04-28T03:07:16;101557.81;;;5.21;83.93
5126;BME280;63008;53.112;8.896;2023-04-28T03:09:17;101556.44;;;5.19;83.79
5126;BME280;63008;53.112;8.896;2023-04-28T03:11:18;101553.47;;;5.15;84.04
5126;BME280;63008;53.112;8.896;2023-04-28T03:13:19;101550.22;;;5.13;83.91
5126;BME280;63008;53.112;8.896;2023-04-28T03:15:20;101543.75;;;5.04;84.28
5126;BME280;63008;53.112;8.896;2023-04-28T03:17:21;101548.91;;;5.01;84.20
5126;BME280;63008;53.112;8.896;2023-04-28T03:19:22;101540.47;;;5.02;84.34
5126;BME280;63008;53.112;8.896;2023-04-28T03:21:23;101544.56;;;5.00;84.33
5126;BME280;63008;53.112;8.896;2023-04-28T03:23:26;101531.47;;;5.07;84.41
5126;BME280;63008;53.112;8.896;2023-04-28T03:25:27;101522.53;;;4.96;84.31
5126;BME280;63008;53.112;8.896;2023-04-28T03:27:28;101519.31;;;4.89;84.28
5126;BME280;63008;53.112;8.896;2023-04-28T03:29:29;101517.38;;;5.00;84.08
5126;BME280;63008;53.112;8.896;2023-04-28T03:31:30;101520.34;;;4.98;84.03
5126;BME280;63008;53.112;8.896;2023-04-28T03:33:31;101517.38;;;5.00;84.04
5126;BME280;63008;53.112;8.896;2023-04-28T03:35:32;101502.72;;;4.96;84.06
5126;BME280;63008;53.112;8.896;2023-04-28T03:37:33;101508.66;;;5.03;83.76
5126;BME280;63008;53.112;8.896;2023-04-28T03:39:34;101506.50;;;4.90;83.63
5126;BME280;63008;53.112;8.896;2023-04-28T03:41:35;101502.44;;;4.92;83.75
5126;BME280;63008;53.112;8.896;2023-04-28T03:43:36;101493.44;;;4.97;83.99
5126;BME280;63008;53.112;8.896;2023-04-28T03:45:37;101497.78;;;5.03;83.50
5126;BME280;63008;53.112;8.896;2023-04-28T03:47:39;101495.56;;;5.05;83.06
5126;BME280;63008;53.112;8.896;2023-04-28T03:49:40;101493.72;;;4.95;83.18
5126;BME280;63008;53.112;8.896;2023-04-28T03:51:41;101486.09;;;4.97;83.53
5126;BME280;63008;53.112;8.896;2023-04-28T03:53:42;101481.97;;;5.05;83.48
5126;BME280;63008;53.112;8.896;2023-04-28T03:55:43;101481.69;;;5.11;83.22
5126;BME280;63008;53.112;8.896;2023-04-28T03:57:44;101470.84;;;5.01;83.01
5126;BME280;63008;53.112;8.896;2023-04-28T03:59:45;101471.41;;;5.03;83.28
5126;BME280;63008;53.112;8.896;2023-04-28T04:01:46;101470.31;;;5.04;83.41
5126;BME280;63008;53.112;8.896;2023-04-28T04:03:47;101472.72;;;5.11;83.14
5126;BME280;63008;53.112;8.896;2023-04-28T04:05:48;101467.47;;;5.19;83.53
5126;BME280;63008;53.112;8.896;2023-04-28T04:07:49;101473.22;;;5.18;82.60
5126;BME280;63008;53.112;8.896;2023-04-28T04:09:50;101467.81;;;5.13;82.63
5126;BME280;63008;53.112;8.896;2023-04-28T04:11:51;101467.75;;;5.23;82.79
5126;BME280;63008;53.112;8.896;2023-04-28T04:13:52;101465.31;;;5.21;82.72
5126;BME280;63008;53.112;8.896;2023-04-28T04:15:53;101466.66;;;5.24;82.52
5126;BME280;63008;53.112;8.896;2023-04-28T04:17:54;101456.84;;;5.23;82.46
5126;BME280;63008;53.112;8.896;2023-04-28T04:19:55;101454.44;;;5.21;81.63
5126;BME280;63008;53.112;8.896;2023-04-28T04:21:56;101457.06;;;5.31;82.81
5126;BME280;63008;53.112;8.896;2023-04-28T04:23:57;101448.88;;;5.36;81.58
5126;BME280;63008;53.112;8.896;2023-04-28T04:25:58;101447.81;;;5.32;80.75
5126;BME280;63008;53.112;8.896;2023-04-28T04:27:58;101448.66;;;5.32;81.44
5126;BME280;63008;53.112;8.896;2023-04-28T04:30:00;101447.91;;;5.22;80.91
5126;BME280;63008;53.112;8.896;2023-04-28T04:32:01;101444.09;;;5.23;80.62
5126;BME280;63008;53.112;8.896;2023-04-28T04:34:02;101440.75;;;5.31;81.18
5126;BME280;63008;53.112;8.896;2023-04-28T04:36:03;101437.47;;;5.34;81.19
5126;BME280;63008;53.112;8.896;2023-04-28T04:38:04;101435.31;;;5.31;80.12
5126;BME280;63008;53.112;8.896;2023-04-28T04:40:07;101432.31;;;5.32;79.99
5126;BME280;63008;53.112;8.896;2023-04-28T04:42:08;101424.44;;;5.31;80.05
5126;BME280;63008;53.112;8.896;2023-04-28T04:44:09;101435.03;;;5.32;79.79
5126;BME280;63008;53.112;8.896;2023-04-28T04:46:10;101430.19;;;5.30;80.30
5126;BME280;63008;53.112;8.896;2023-04-28T04:48:11;101423.31;;;5.37;79.15
5126;BME280;63008;53.112;8.896;2023-04-28T04:50:12;101423.06;;;5.33;79.31
5126;BME280;63008;53.112;8.896;2023-04-28T04:52:13;101418.88;;;5.46;78.95
5126;BME280;63008;53.112;8.896;2023-04-28T04:54:14;101413.97;;;5.48;78.53
5126;BME280;63008;53.112;8.896;2023-04-28T04:56:15;101411.28;;;5.43;78.54
5126;BME280;63008;53.112;8.896;2023-04-28T04:58:16;101413.69;;;5.49;78.55
5126;BME280;63008;53.112;8.896;2023-04-28T05:00:18;101406.63;;;5.48;77.73
5126;BME280;63008;53.112;8.896;2023-04-28T05:02:19;101400.28;;;5.58;77.70
5126;BME280;63008;53.112;8.896;2023-04-28T05:04:22;101401.66;;;5.55;77.71
5126;BME280;63008;53.112;8.896;2023-04-28T05:06:23;101405.22;;;5.56;77.70
5126;BME280;63008;53.112;8.896;2023-04-28T05:08:24;101399.78;;;5.56;77.90
5126;BME280;63008;53.112;8.896;2023-04-28T05:10:25;101400.31;;;5.53;78.65
5126;BME280;63008;53.112;8.896;2023-04-28T05:12:27;101402.13;;;5.62;77.93
5126;BME280;63008;53.112;8.896;2023-04-28T05:14:28;101407.88;;;5.61;77.59
5126;BME280;63008;53.112;8.896;2023-04-28T05:16:29;101400.50;;;5.66;77.73
5126;BME280;63008;53.112;8.896;2023-04-28T05:18:30;101404.59;;;5.64;77.15
5126;BME280;63008;53.112;8.896;2023-04-28T05:20:31;101399.97;;;5.64;76.65
5126;BME280;63008;53.112;8.896;2023-04-28T05:22:31;101406.72;;;5.67;77.11
5126;BME280;63008;53.112;8.896;2023-04-28T05:24:32;101408.16;;;5.59;76.72
5126;BME280;63008;53.112;8.896;2023-04-28T05:26:35;101407.06;;;5.60;77.69
5126;BME280;63008;53.112;8.896;2023-04-28T05:28:36;101410.81;;;5.69;76.00
5126;BME280;63008;53.112;8.896;2023-04-28T05:30:37;101406.78;;;5.62;76.04
5126;BME280;63008;53.112;8.896;2023-04-28T05:32:38;101411.34;;;5.71;76.25
5126;BME280;63008;53.112;8.896;2023-04-28T05:34:38;101408.56;;;5.81;76.91
5126;BME280;63008;53.112;8.896;2023-04-28T05:36:40;101408.38;;;6.01;76.32
5126;BME280;63008;53.112;8.896;2023-04-28T05:38:42;101406.06;;;6.13;76.13
5126;BME280;63008;53.112;8.896;2023-04-28T05:40:43;101409.66;;;6.09;74.09
5126;BME280;63008;53.112;8.896;2023-04-28T05:42:44;101406.22;;;6.22;75.11
5126;BME280;63008;53.112;8.896;2023-04-28T05:44:45;101413.28;;;6.28;75.02
5126;BME280;63008;53.112;8.896;2023-04-28T05:46:46;101401.72;;;6.36;75.67
5126;BME280;63008;53.112;8.896;2023-04-28T05:48:47;101404.22;;;6.32;73.24
5126;BME280;63008;53.112;8.896;2023-04-28T05:50:48;101397.09;;;6.36;74.71
5126;BME280;63008;53.112;8.896;2023-04-28T05:52:49;101398.25;;;6.54;73.34
5126;BME280;63008;53.112;8.896;2023-04-28T05:54:50;101396.78;;;6.61;73.36
5126;BME280;63008;53.112;8.896;2023-04-28T05:56:51;101395.56;;;6.72;73.41
5126;BME280;63008;53.112;8.896;2023-04-28T05:58:52;101393.03;;;6.76;72.31
5126;BME280;63008;53.112;8.896;2023-04-28T06:00:52;101385.84;;;6.85;72.86
5126;BME280;63008;53.112;8.896;2023-04-28T06:02:54;101384.50;;;6.82;72.75
5126;BME280;63008;53.112;8.896;2023-04-28T06:04:55;101389.91;;;6.87;72.83
5126;BME280;63008;53.112;8.896;2023-04-28T06:06:56;101384.38;;;6.92;72.74
5126;BME280;63008;53.112;8.896;2023-04-28T06:09:01;101378.47;;;7.04;71.63
5126;BME280;63008;53.112;8.896;2023-04-28T06:11:02;101380.97;;;7.00;72.62
5126;BME280;63008;53.112;8.896;2023-04-28T06:13:03;101379.28;;;7.04;71.06
5126;BME280;63008;53.112;8.896;2023-04-28T06:15:06;101378.91;;;7.29;70.54
5126;BME280;63008;53.112;8.896;2023-04-28T06:17:07;101385.13;;;7.34;71.42
5126;BME280;63008;53.112;8.896;2023-04-28T06:19:08;101376.31;;;7.37;69.29
5126;BME280;63008;53.112;8.896;2023-04-28T06:21:09;101370.56;;;7.39;70.06
5126;BME280;63008;53.112;8.896;2023-04-28T06:23:10;101384.34;;;7.47;70.36
5126;BME280;63008;53.112;8.896;2023-04-28T06:25:11;101384.19;;;7.57;69.80
5126;BME280;63008;53.112;8.896;2023-04-28T06:27:12;101380.47;;;7.67;70.30
5126;BME280;63008;53.112;8.896;2023-04-28T06:29:13;101376.50;;;7.59;71.01
5126;BME280;63008;53.112;8.896;2023-04-28T06:31:14;101376.84;;;7.71;69.34
5126;BME280;63008;53.112;8.896;2023-04-28T06:33:15;101381.72;;;7.74;69.25
5126;BME280;63008;53.112;8.896;2023-04-28T06:35:16;101380.03;;;7.92;70.91
5126;BME280;63008;53.112;8.896;2023-04-28T06:37:17;101378.63;;;7.94;68.30
5126;BME280;63008;53.112;8.896;2023-04-28T06:39:18;101386.16;;;8.02;66.87
5126;BME280;63008;53.112;8.896;2023-04-28T06:41:19;101378.25;;;8.14;67.34
5126;BME280;63008;53.112;8.896;2023-04-28T06:43:20;101369.13;;;8.05;65.98
5126;BME280;63008;53.112;8.896;2023-04-28T06:45:21;101368.63;;;8.03;66.95
5126;BME280;63008;53.112;8.896;2023-04-28T06:47:22;101373.69;;;8.10;67.34
5126;BME280;63008;53.112;8.896;2023-04-28T06:49:23;101373.63;;;8.28;66.33
5126;BME280;63008;53.112;8.896;2023-04-28T06:51:24;101376.97;;;8.25;66.11
5126;BME280;63008;53.112;8.896;2023-04-28T06:53:26;101379.31;;;8.45;66.98
5126;BME280;63008;53.112;8.896;2023-04-28T06:55:27;101375.66;;;8.36;66.39
5126;BME280;63008;53.112;8.896;2023-04-28T06:57:28;101376.69;;;8.54;66.53
5126;BME280;63008;53.112;8.896;2023-04-28T06:59:29;101371.59;;;8.61;66.47
5126;BME280;63008;53.112;8.896;2023-04-28T07:01:30;101360.66;;;8.61;64.68
5126;BME280;63008;53.112;8.896;2023-04-28T07:03:31;101358.50;;;8.71;65.03
5126;BME280;63008;53.112;8.896;2023-04-28T07:05:32;101355.22;;;8.96;63.19
5126;BME280;63008;53.112;8.896;2023-04-28T07:07:34;101356.63;;;9.07;62.70
5126;BME280;63008;53.112;8.896;2023-04-28T07:09:35;101349.63;;;9.01;64.03
5126;BME280;63008;53.112;8.896;2023-04-28T07:11:36;101347.03;;;9.18;63.96
5126;BME280;63008;53.112;8.896;2023-04-28T07:13:37;101347.53;;;9.20;63.82
5126;BME280;63008;53.112;8.896;2023-04-28T07:15:38;101338.41;;;9.24;64.06
5126;BME280;63008;53.112;8.896;2023-04-28T07:17:39;101343.81;;;9.38;62.59
5126;BME280;63008;53.112;8.896;2023-04-28T07:19:40;101338.72;;;9.45;63.15
5126;BME280;63008;53.112;8.896;2023-04-28T07:21:41;101335.72;;;9.55;63.88
5126;BME280;63008;53.112;8.896;2023-04-28T07:23:42;101336.16;;;9.70;61.87
5126;BME280;63008;53.112;8.896;2023-04-28T07:25:43;101328.53;;;9.89;64.30
5126;BME280;63008;53.112;8.896;2023-04-28T07:27:45;101338.41;;;9.99;63.00
5126;BME280;63008;53.112;8.896;2023-04-28T07:29:46;101339.81;;;10.18;60.84
5126;BME280;63008;53.112;8.896;2023-04-28T07:31:47;101343.81;;;10.12;60.00
5126;BME280;63008;53.112;8.896;2023-04-28T07:33:48;101332.03;;;10.12;60.72
5126;BME280;63008;53.112;8.896;2023-04-28T07:35:49;101331.44;;;10.23;62.43
5126;BME280;63008;53.112;8.896;2023-04-28T07:37:52;101334.22;;;10.32;62.43
5126;BME280;63008;53.112;8.896;2023-04-28T07:39:53;101345.56;;;10.47;61.33
5126;BME280;63008;53.112;8.896;2023-04-28T07:41:54;101340.66;;;10.27;60.88
5126;BME280;63008;53.112;8.896;2023-04-28T07:43:55;101346.88;;;10.50;61.27
5126;BME280;63008;53.112;8.896;2023-04-28T07:45:57;101339.91;;;10.52;60.42
5126;BME280;63008;53.112;8.896;2023-04-28T07:47:58;101344.78;;;10.55;61.97
5126;BME280;63008;53.112;8.896;2023-04-28T07:50:00;101340.34;;;10.85;60.25
5126;BME280;63008;53.112;8.896;2023-04-28T07:52:04;101344.53;;;10.82;59.55
5126;BME280;63008;53.112;8.896;2023-04-28T07:54:05;101337.75;;;10.96;58.77
5126;BME280;63008;53.112;8.896;2023-04-28T07:56:06;101341.59;;;10.87;58.01
5126;BME280;63008;53.112;8.896;2023-04-28T07:58:07;101333.38;;;10.95;58.34
5126;BME280;63008;53.112;8.896;2023-04-28T08:00:09;101322.09;;;10.97;59.30
5126;BME280;63008;53.112;8.896;2023-04-28T08:02:11;101325.97;;;11.04;59.56
5126;BME280;63008;53.112;8.896;2023-04-28T08:04:15;101323.38;;;10.99;58.88
5126;BME280;63008;53.112;8.896;2023-04-28T08:06:16;101316.25;;;11.07;58.26
5126;BME280;63008;53.112;8.896;2023-04-28T08:08:17;101311.59;;;11.07;59.68
5126;BME280;63008;53.112;8.896;2023-04-28T08:10:18;101315.47;;;11.23;59.02
5126;BME280;63008;53.112;8.896;2023-04-28T08:12:19;101316.44;;;11.27;57.60
5126;BME280;63008;53.112;8.896;2023-04-28T08:14:21;101311.88;;;11.40;58.43
5126;BME280;63008;53.112;8.896;2023-04-28T08:16:22;101310.41;;;11.51;56.56
5126;BME280;63008;53.112;8.896;2023-04-28T08:18:23;101311.56;;;11.41;58.13
5126;BME280;63008;53.112;8.896;2023-04-28T08:20:24;101308.63;;;11.72;60.07
5126;BME280;63008;53.112;8.896;2023-04-28T08:22:25;101312.13;;;11.98;57.16
5126;BME280;63008;53.112;8.896;2023-04-28T08:24:26;101313.34;;;12.09;59.04
5126;BME280;63008;53.112;8.896;2023-04-28T08:26:29;101316.88;;;12.18;56.96
5126;BME280;63008;53.112;8.896;2023-04-28T08:28:31;101313.22;;;12.34;55.11
5126;BME280;63008;53.112;8.896;2023-04-28T08:30:33;101306.94;;;12.34;54.87
5126;BME280;63008;53.112;8.896;2023-04-28T08:32:35;101315.63;;;12.44;55.61
5126;BME280;63008;53.112;8.896;2023-04-28T08:34:36;101295.53;;;12.73;56.00
5126;BME280;63008;53.112;8.896;2023-04-28T08:36:36;101298.81;;;12.86;55.54
5126;BME280;63008;53.112;8.896;2023-04-28T08:38:37;101303.09;;;13.04;55.06
5126;BME280;63008;53.112;8.896;2023-04-28T08:40:39;101298.81;;;12.86;54.32
5126;BME280;63008;53.112;8.896;2023-04-28T08:42:43;101294.22;;;12.99;53.82
5126;BME280;63008;53.112;8.896;2023-04-28T08:44:46;101299.50;;;13.04;54.23
5126;BME280;63008;53.112;8.896;2023-04-28T08:46:48;101300.66;;;12.74;52.52
5126;BME280;63008;53.112;8.896;2023-04-28T08:48:50;101288.94;;;12.85;52.01
5126;BME280;63008;53.112;8.896;2023-04-28T08:50:53;101291.41;;;13.07;52.67
5126;BME280;63008;53.112;8.896;2023-04-28T08:53:03;101285.13;;;12.98;53.85
5126;BME280;63008;53.112;8.896;2023-04-28T08:55:08;101290.72;;;13.10;52.29
5126;BME280;63008;53.112;8.896;2023-04-28T08:57:10;101295.06;;;13.32;49.84
5126;BME280;63008;53.112;8.896;2023-04-28T08:59:11;101291.34;;;13.28;50.75
5126;BME280;63008;53.112;8.896;2023-04-28T09:01:13;101291.50;;;13.11;50.54
5126;BME280;63008;53.112;8.896;2023-04-28T09:03:14;101283.91;;;13.28;50.24
5126;BME280;63008;53.112;8.896;2023-04-28T09:05:15;101284.59;;;13.25;49.51
5126;BME280;63008;53.112;8.896;2023-04-28T09:07:16;101292.16;;;13.49;50.24
5126;BME280;63008;53.112;8.896;2023-04-28T09:09:29;101286.53;;;13.57;49.01
5126;BME280;63008;53.112;8.896;2023-04-28T09:11:30;101280.22;;;13.57;51.91
5126;BME280;63008;53.112;8.896;2023-04-28T09:13:31;101286.56;;;13.69;51.33
5126;BME280;63008;53.112;8.896;2023-04-28T09:15:36;101275.31;;;13.74;49.76
5126;BME280;63008;53.112;8.896;2023-04-28T09:17:48;101279.00;;;13.90;50.52
5126;BME280;63008;53.112;8.896;2023-04-28T09:19:49;101275.97;;;13.71;49.04
5126;BME280;63008;53.112;8.896;2023-04-28T09:21:55;101275.16;;;13.59;49.30
5126;BME280;63008;53.112;8.896;2023-04-28T09:23:56;101270.56;;;13.63;50.40
5126;BME280;63008;53.112;8.896;2023-04-28T09:26:05;101270.09;;;13.61;51.22
5126;BME280;63008;53.112;8.896;2023-04-28T09:28:20;101277.41;;;13.45;50.89
5126;BME280;63008;53.112;8.896;2023-04-28T09:30:38;101280.75;;;13.50;49.88
5126;BME280;63008;53.112;8.896;2023-04-28T09:32:40;101279.75;;;13.55;51.00
5126;BME280;63008;53.112;8.896;2023-04-28T09:34:46;101279.19;;;13.61;50.33
5126;BME280;63008;53.112;8.896;2023-04-28T09:36:47;101274.81;;;13.60;50.01
5126;BME280;63008;53.112;8.896;2023-04-28T09:38:48;101279.78;;;13.79;50.43
5126;BME280;63008;53.112;8.896;2023-04-28T09:40:59;101278.63;;;13.80;51.17
5126;BME280;63008;53.112;8.896;2023-04-28T09:43:00;101279.69;;;13.87;50.98
5126;BME280;63008;53.112;8.896;2023-04-28T09:45:05;101278.13;;;14.10;49.25
5126;BME280;63008;53.112;8.896;2023-04-28T09:47:25;101265.16;;;14.23;50.21
5126;BME280;63008;53.112;8.896;2023-04-28T09:49:26;101263.16;;;14.11;49.38
5126;BME280;63008;53.112;8.896;2023-04-28T09:51:27;101273.91;;;14.25;50.82
5126;BME280;63008;53.112;8.896;2023-04-28T09:53:29;101268.78;;;14.15;50.26
5126;BME280;63008;53.112;8.896;2023-04-28T09:55:31;101266.75;;;14.24;50.74
5126;BME280;63008;53.112;8.896;2023-04-28T09:57:38;101264.34;;;14.22;49.48
5126;BME280;63008;53.112;8.896;2023-04-28T09:59:39;101261.81;;;14.29;50.04
5126;BME280;63008;53.112;8.896;2023-04-28T10:01:42;101258.25;;;14.41;49.37
5126;BME280;63008;53.112;8.896;2023-04-28T10:03:44;101260.56;;;14.39;50.86
5126;BME280;63008;53.112;8.896;2023-04-28T10:05:46;101264.13;;;14.27;50.00
5126;BME280;63008;53.112;8.896;2023-04-28T10:07:47;101264.47;;;14.38;50.86
5126;BME280;63008;53.112;8.896;2023-04-28T10:09:49;101258.13;;;14.37;51.14
5126;BME280;63008;53.112;8.896;2023-04-28T10:11:50;101256.03;;;14.10;52.06
5126;BME280;63008;53.112;8.896;2023-04-28T10:13:52;101255.59;;;14.32;51.55
5126;BME280;63008;53.112;8.896;2023-04-28T10:15:53;101249.50;;;14.39;53.32
5126;BME280;63008;53.112;8.896;2023-04-28T10:17:55;101248.31;;;14.63;51.66
5126;BME280;63008;53.112;8.896;2023-04-28T10:19:56;101256.63;;;14.91;54.01
5126;BME280;63008;53.112;8.896;2023-04-28T10:22:12;101252.19;;;14.74;52.94
5126;BME280;63008;53.112;8.896;2023-04-28T10:24:21;101247.91;;;14.77;52.37
5126;BME280;63008;53.112;8.896;2023-04-28T10:28:50;101244.69;;;14.36;53.13
5126;BME280;63008;53.112;8.896;2023-04-28T10:31:11;101239.00;;;14.56;53.16
5126;BME280;63008;53.112;8.896;2023-04-28T10:38:01;101224.06;;;14.21;54.49
5126;BME280;63008;53.112;8.896;2023-04-28T10:42:51;101220.56;;;14.60;54.58
5126;BME280;63008;53.112;8.896;2023-04-28T10:44:52;101223.03;;;14.77;55.00
5126;BME280;63008;53.112;8.896;2023-04-28T10:47:06;101221.25;;;14.96;53.42
5126;BME280;63008;53.112;8.896;2023-04-28T10:49:08;101217.66;;;15.08;51.82
5126;BME280;63008;53.112;8.896;2023-04-28T10:53:12;101204.47;;;14.50;54.73
5126;BME280;63008;53.112;8.896;2023-04-28T10:55:29;101204.81;;;14.49;53.89
5126;BME280;63008;53.112;8.896;2023-04-28T10:57:32;101203.16;;;14.20;53.48
5126;BME280;63008;53.112;8.896;2023-04-28T10:59:34;101195.91;;;14.04;53.63
5126;BME280;63008;53.112;8.896;2023-04-28T11:01:35;101200.94;;;14.14;54.37
5126;BME280;63008;53.112;8.896;2023-04-28T11:06:40;101197.94;;;13.95;53.70